createdAt,value
2018-07-19T00:01:17.580Z,98530.00
2018-07-19T00:03:46.041Z,98533.00
2018-07-19T00:06:14.698Z,98536.00
2018-07-19T00:08:43.353Z,98542.00
2018-07-19T00:11:12.026Z,98546.00
2018-07-19T00:13:40.657Z,98551.00
2018-07-19T00:16:09.971Z,98461.00
2018-07-19T00:18:38.596Z,98549.00
2018-07-19T00:21:07.080Z,98550.00
2018-07-19T00:23:35.685Z,98551.00
2018-07-19T00:26:04.334Z,98554.00
2018-07-19T00:28:32.956Z,98553.00
2018-07-19T00:31:01.568Z,98548.00
2018-07-19T00:33:30.211Z,98545.00
2018-07-19T00:35:58.819Z,98545.00
2018-07-19T00:38:27.505Z,98541.00
2018-07-19T00:40:56.192Z,98542.00
2018-07-19T00:43:24.893Z,98537.00
2018-07-19T00:45:53.561Z,98538.00
2018-07-19T00:48:22.238Z,98539.00
2018-07-19T00:50:50.910Z,98537.00
2018-07-19T00:53:19.583Z,98540.00
2018-07-19T00:55:48.044Z,98536.00
2018-07-19T00:58:16.786Z,98535.00
2018-07-19T01:00:45.421Z,98533.00
2018-07-19T01:03:13.881Z,98534.00
2018-07-19T01:05:42.418Z,98527.00
2018-07-19T01:08:11.113Z,98533.00
2018-07-19T01:10:39.796Z,98529.00
2018-07-19T01:13:08.520Z,98531.00
2018-07-19T01:15:37.264Z,98534.00
2018-07-19T01:18:06.404Z,98535.00
2018-07-19T01:20:36.263Z,98538.00
2018-07-19T01:23:04.965Z,98540.00
2018-07-19T01:25:33.603Z,98536.00
2018-07-19T01:28:02.253Z,98539.00
2018-07-19T01:30:30.911Z,98537.00
2018-07-19T01:32:59.555Z,98539.00
2018-07-19T01:35:27.978Z,98538.00
2018-07-19T01:37:56.577Z,98537.00
2018-07-19T01:40:25.249Z,98542.00
2018-07-19T01:42:54.237Z,98538.00
2018-07-19T01:45:22.927Z,98529.00
2018-07-19T01:47:51.650Z,98534.00
2018-07-19T01:50:20.363Z,98538.00
2018-07-19T01:52:49.035Z,98537.00
2018-07-19T01:55:17.685Z,98532.00
2018-07-19T01:57:46.350Z,98532.00
2018-07-19T02:00:15.117Z,98531.00
2018-07-19T02:02:43.683Z,98532.00
2018-07-19T02:05:12.313Z,98532.00
2018-07-19T02:07:40.948Z,98533.00
2018-07-19T02:10:09.611Z,98539.00
2018-07-19T02:12:38.330Z,98545.00
2018-07-19T02:15:06.831Z,98548.00
2018-07-19T02:17:35.529Z,98539.00
2018-07-19T02:20:04.266Z,98544.00
2018-07-19T02:22:32.755Z,98542.00
2018-07-19T02:25:01.446Z,98539.00
2018-07-19T02:27:30.103Z,98537.00
2018-07-19T02:29:58.823Z,98538.00
2018-07-19T02:32:27.261Z,98540.00
2018-07-19T02:34:55.973Z,98536.00
2018-07-19T02:37:24.691Z,98533.00
2018-07-19T02:39:53.325Z,98535.00
2018-07-19T02:42:21.975Z,98530.00
2018-07-19T02:44:50.648Z,98528.00
2018-07-19T02:47:19.286Z,98528.00
2018-07-19T02:49:47.723Z,98525.00
2018-07-19T02:52:16.303Z,98524.00
2018-07-19T02:54:44.986Z,98528.00
2018-07-19T02:57:13.625Z,98521.00
2018-07-19T02:59:42.276Z,98524.00
2018-07-19T03:02:11.067Z,98521.00
2018-07-19T03:04:39.756Z,98521.00
2018-07-19T03:07:08.343Z,98520.00
2018-07-19T03:09:36.986Z,98522.00
2018-07-19T03:12:05.641Z,98518.00
2018-07-19T03:14:34.106Z,98522.00
2018-07-19T03:17:02.756Z,98517.00
2018-07-19T03:19:31.483Z,98516.00
2018-07-19T03:21:59.945Z,98511.00
2018-07-19T03:24:28.590Z,98512.00
2018-07-19T03:26:57.239Z,98509.00
2018-07-19T03:29:25.898Z,98505.00
2018-07-19T03:31:54.511Z,98507.00
2018-07-19T03:34:23.136Z,98506.00
2018-07-19T03:36:51.760Z,98507.00
2018-07-19T03:39:20.275Z,98507.00
2018-07-19T03:41:48.969Z,98506.00
2018-07-19T03:44:17.635Z,98506.00
2018-07-19T03:46:46.261Z,98504.00
2018-07-19T03:49:14.871Z,98499.00
2018-07-19T03:51:43.548Z,98498.00
2018-07-19T03:54:12.225Z,98505.00
2018-07-19T03:56:40.830Z,98507.00
2018-07-19T03:59:09.505Z,98511.00
2018-07-19T04:01:38.131Z,98513.00
2018-07-19T04:04:06.580Z,98510.00
2018-07-19T04:06:35.225Z,98508.00
2018-07-19T04:09:05.361Z,98505.00
2018-07-19T04:11:33.996Z,98512.00
2018-07-19T04:14:02.401Z,98515.00
2018-07-19T04:16:31.018Z,98515.00
2018-07-19T04:18:59.595Z,98521.00
2018-07-19T04:21:28.303Z,98517.00
2018-07-19T04:23:56.926Z,98518.00
2018-07-19T04:26:25.570Z,98515.00
2018-07-19T04:28:54.227Z,98523.00
2018-07-19T04:31:22.831Z,98521.00
2018-07-19T04:33:51.442Z,98518.00
2018-07-19T04:36:19.865Z,98516.00
2018-07-19T04:38:48.470Z,98515.00
2018-07-19T04:41:17.082Z,98513.00
2018-07-19T04:43:45.785Z,98513.00
2018-07-19T04:46:14.430Z,98509.00
2018-07-19T04:48:43.055Z,98512.00
2018-07-19T04:51:11.698Z,98511.00
2018-07-19T04:53:40.347Z,98511.00
2018-07-19T04:56:08.985Z,98515.00
2018-07-19T04:58:37.495Z,98508.00
2018-07-19T05:01:06.295Z,98499.00
2018-07-19T05:03:34.935Z,98494.00
2018-07-19T05:06:03.515Z,98497.00
2018-07-19T05:08:32.120Z,98492.00
2018-07-19T05:11:00.796Z,98489.00
2018-07-19T05:13:29.282Z,98492.00
2018-07-19T05:15:57.698Z,98488.00
2018-07-19T05:18:26.296Z,98488.00
2018-07-19T05:20:54.910Z,98487.00
2018-07-19T05:23:23.568Z,98493.00
2018-07-19T05:25:52.165Z,98488.00
2018-07-19T05:28:20.835Z,98479.00
2018-07-19T05:30:49.581Z,98477.00
2018-07-19T05:33:18.231Z,98478.00
2018-07-19T05:35:46.761Z,98477.00
2018-07-19T05:38:15.450Z,98479.00
2018-07-19T05:40:44.083Z,98471.00
2018-07-19T05:43:12.918Z,98478.00
2018-07-19T05:45:41.675Z,98471.00
2018-07-19T05:48:10.151Z,98473.00
2018-07-19T05:50:39.134Z,98476.00
2018-07-19T05:53:07.764Z,98476.00
2018-07-19T05:55:36.396Z,98478.00
2018-07-19T05:58:05.205Z,98483.00
2018-07-19T06:00:33.698Z,98483.00
2018-07-19T06:03:02.403Z,98485.00
2018-07-19T06:05:31.154Z,98479.00
2018-07-19T06:07:59.583Z,98476.00
2018-07-19T06:10:28.513Z,98475.00
2018-07-19T06:12:57.231Z,98474.00
2018-07-19T06:15:25.938Z,98477.00
2018-07-19T06:17:54.593Z,98476.00
2018-07-19T06:20:23.091Z,98476.00
2018-07-19T06:22:51.780Z,98474.00
2018-07-19T06:25:20.593Z,98477.00
2018-07-19T06:27:49.274Z,98480.00
2018-07-19T06:30:18.011Z,98483.00
2018-07-19T06:32:46.806Z,98485.00
2018-07-19T06:35:15.504Z,98483.00
2018-07-19T06:37:44.226Z,98487.00
2018-07-19T06:40:12.986Z,98487.00
2018-07-19T06:42:41.668Z,98486.00
2018-07-19T06:45:10.316Z,98490.00
2018-07-19T06:47:38.753Z,98490.00
2018-07-19T06:50:07.738Z,98492.00
2018-07-19T06:52:36.453Z,98494.00
2018-07-19T06:55:05.630Z,98493.00
2018-07-19T06:57:34.654Z,98499.00
2018-07-19T07:00:04.492Z,98501.00
2018-07-19T07:02:33.233Z,98500.00
2018-07-19T07:05:02.001Z,98503.00
2018-07-19T07:07:30.816Z,98503.00
2018-07-19T07:09:59.632Z,98506.00
2018-07-19T07:12:28.242Z,98505.00
2018-07-19T07:14:57.071Z,98506.00
2018-07-19T07:17:25.731Z,98505.00
2018-07-19T07:19:54.493Z,98501.00
2018-07-19T07:22:23.264Z,98496.00
2018-07-19T07:24:51.957Z,98497.00
2018-07-19T07:27:20.739Z,98500.00
2018-07-19T07:29:49.623Z,98493.00
2018-07-19T07:32:18.158Z,98492.00
2018-07-19T07:34:46.859Z,98485.00
2018-07-19T07:37:15.783Z,98479.00
2018-07-19T07:39:44.574Z,98480.00
2018-07-19T07:42:13.110Z,98473.00
2018-07-19T07:44:42.165Z,98472.00
2018-07-19T07:47:11.176Z,98475.00
2018-07-19T07:49:40.009Z,98474.00
2018-07-19T07:52:10.169Z,98469.00
2018-07-19T07:54:39.194Z,98476.00
2018-07-19T07:57:08.207Z,98471.00
2018-07-19T07:59:36.933Z,98475.00
2018-07-19T08:02:05.933Z,98471.00
2018-07-19T08:04:34.663Z,98470.00
2018-07-19T08:07:03.399Z,98471.00
2018-07-19T08:09:32.111Z,98469.00
2018-07-19T08:12:00.746Z,98465.00
2018-07-19T08:14:29.268Z,98466.00
2018-07-19T08:16:57.958Z,98468.00
2018-07-19T08:19:26.639Z,98471.00
2018-07-19T08:21:55.543Z,98472.00
2018-07-19T08:24:24.227Z,98470.00
2018-07-19T08:26:52.873Z,98475.00
2018-07-19T08:29:22.335Z,98473.00
2018-07-19T08:31:51.072Z,98472.00
2018-07-19T08:34:19.609Z,98469.00
2018-07-19T08:36:48.368Z,98468.00
2018-07-19T08:39:17.229Z,98465.00
2018-07-19T08:41:45.768Z,98465.00
2018-07-19T08:44:18.226Z,98465.00
2018-07-19T08:46:46.988Z,98466.00
2018-07-19T08:49:15.776Z,98468.00
2018-07-19T08:51:44.482Z,98465.00
2018-07-19T08:54:13.178Z,98475.00
2018-07-19T08:56:41.937Z,98470.00
2018-07-19T08:59:10.626Z,98471.00
2018-07-19T09:01:39.534Z,98470.00
2018-07-19T09:04:08.196Z,98466.00
2018-07-19T09:06:36.895Z,98462.00
2018-07-19T09:09:08.566Z,98459.00
2018-07-19T09:11:37.513Z,98455.00
2018-07-19T09:14:06.387Z,98455.00
2018-07-19T09:16:35.035Z,98457.00
2018-07-19T09:19:03.912Z,98453.00
2018-07-19T09:21:32.663Z,98455.00
2018-07-19T09:24:01.475Z,98453.00
2018-07-19T09:26:30.234Z,98451.00
2018-07-19T09:28:58.998Z,98451.00
2018-07-19T09:31:27.761Z,98449.00
2018-07-19T09:33:56.549Z,98443.00
2018-07-19T09:36:25.362Z,98445.00
2018-07-19T09:38:54.208Z,98442.00
2018-07-19T09:41:22.878Z,98445.00
2018-07-19T09:43:53.881Z,98440.00
2018-07-19T09:46:22.625Z,98441.00
2018-07-19T09:48:51.362Z,98440.00
2018-07-19T09:51:20.158Z,98439.00
2018-07-19T09:53:51.311Z,98435.00
2018-07-19T09:56:20.016Z,98439.00
2018-07-19T09:58:48.786Z,98435.00
2018-07-19T10:01:17.957Z,98434.00
2018-07-19T10:03:47.761Z,98436.00
2018-07-19T10:06:16.411Z,98434.00
2018-07-19T10:08:45.251Z,98436.00
2018-07-19T10:11:14.191Z,98439.00
2018-07-19T10:13:43.037Z,98439.00
2018-07-19T10:16:11.878Z,98445.00
2018-07-19T10:18:41.547Z,98446.00
2018-07-19T10:21:10.200Z,98442.00
2018-07-19T10:23:38.972Z,98444.00
2018-07-19T10:26:07.624Z,98442.00
2018-07-19T10:28:36.989Z,98440.00
2018-07-19T10:31:06.208Z,98445.00
2018-07-19T10:33:35.046Z,98450.00
2018-07-19T10:36:03.713Z,98442.00
2018-07-19T10:38:33.046Z,98442.00
2018-07-19T10:41:01.823Z,98446.00
2018-07-19T10:43:30.538Z,98443.00
2018-07-19T10:45:59.227Z,98444.00
2018-07-19T10:48:28.611Z,98445.00
2018-07-19T10:50:57.374Z,98447.00
2018-07-19T10:53:26.145Z,98442.00
2018-07-19T10:55:54.867Z,98445.00
2018-07-19T10:58:23.707Z,98438.00
2018-07-19T11:00:52.313Z,98439.00
2018-07-19T11:03:21.951Z,98439.00
2018-07-19T11:05:51.523Z,98438.00
2018-07-19T11:08:20.999Z,98437.00
2018-07-19T11:10:49.826Z,98440.00
2018-07-19T11:13:18.461Z,98441.00
2018-07-19T11:15:47.164Z,98438.00
2018-07-19T11:18:15.771Z,98440.00
2018-07-19T11:20:44.424Z,98432.00
2018-07-19T11:23:13.203Z,98444.00
2018-07-19T11:25:41.934Z,98437.00
2018-07-19T11:28:10.606Z,98441.00
2018-07-19T11:30:39.304Z,98435.00
2018-07-19T11:33:08.122Z,98436.00
2018-07-19T11:35:36.933Z,98441.00
2018-07-19T11:38:05.725Z,98438.00
2018-07-19T11:40:35.346Z,98440.00
2018-07-19T11:43:04.269Z,98429.00
2018-07-19T11:45:33.540Z,98424.00
2018-07-19T11:48:02.293Z,98418.00
2018-07-19T11:50:31.113Z,98424.00
2018-07-19T11:52:59.885Z,98418.00
2018-07-19T11:55:28.710Z,98420.00
2018-07-19T11:57:57.557Z,98413.00
2018-07-19T12:00:26.327Z,98407.00
2018-07-19T12:02:55.226Z,98407.00
2018-07-19T12:05:24.210Z,98410.00
2018-07-19T12:07:52.964Z,98411.00
2018-07-19T12:10:21.849Z,98406.00
2018-07-19T12:12:50.969Z,98409.00
2018-07-19T12:15:19.773Z,98409.00
2018-07-19T12:17:48.641Z,98410.00
2018-07-19T12:20:17.311Z,98407.00
2018-07-19T12:22:46.911Z,98403.00
2018-07-19T12:25:15.551Z,98405.00
2018-07-19T12:27:44.335Z,98409.00
2018-07-19T12:30:13.890Z,98407.00
2018-07-19T12:32:42.622Z,98409.00
2018-07-19T12:35:12.185Z,98410.00
2018-07-19T12:37:41.050Z,98409.00
2018-07-19T12:40:10.043Z,98410.00
2018-07-19T12:42:39.260Z,98403.00
2018-07-19T12:45:08.084Z,98406.00
2018-07-19T12:47:36.865Z,98395.00
2018-07-19T12:50:05.681Z,98399.00
2018-07-19T12:52:34.910Z,98408.00
2018-07-19T12:55:03.745Z,98397.00
2018-07-19T12:57:32.531Z,98395.00
2018-07-19T13:00:01.313Z,98398.00
2018-07-19T13:02:31.808Z,98389.00
2018-07-19T13:05:00.576Z,98396.00
2018-07-19T13:07:29.628Z,98390.00
2018-07-19T13:10:13.554Z,98391.00
2018-07-19T13:12:42.693Z,98393.00
2018-07-19T13:15:11.663Z,98390.00
2018-07-19T13:17:40.328Z,98391.00
2018-07-19T13:20:09.196Z,98392.00
2018-07-19T13:22:37.988Z,98394.00
2018-07-19T13:25:06.956Z,98387.00
2018-07-19T13:27:35.751Z,98390.00
2018-07-19T13:30:05.732Z,98394.00
2018-07-19T13:32:34.463Z,98383.00
2018-07-19T13:35:03.328Z,98387.00
2018-07-19T13:37:32.076Z,98385.00
2018-07-19T13:40:00.806Z,98378.00
2018-07-19T13:42:29.583Z,98384.00
2018-07-19T13:44:58.663Z,98381.00
2018-07-19T13:47:27.461Z,98380.00
2018-07-19T13:49:57.836Z,98381.00
2018-07-19T13:52:43.315Z,98373.00
2018-07-19T13:55:14.875Z,98375.00
2018-07-19T13:57:43.793Z,98377.00
2018-07-19T14:00:12.580Z,98382.00
2018-07-19T14:02:41.203Z,98373.00
2018-07-19T14:05:09.954Z,98372.00
2018-07-19T14:07:38.619Z,98375.00
2018-07-19T14:10:07.278Z,98371.00
2018-07-19T14:12:35.969Z,98376.00
2018-07-19T14:15:05.459Z,98373.00
2018-07-19T14:17:34.008Z,98374.00
2018-07-19T14:20:03.201Z,98378.00
2018-07-19T14:22:31.929Z,98372.00
2018-07-19T14:25:00.599Z,98375.00
2018-07-19T14:27:29.073Z,98372.00
2018-07-19T14:29:57.651Z,98372.00
2018-07-19T14:32:26.172Z,98375.00
2018-07-19T14:34:54.736Z,98368.00
2018-07-19T14:37:23.346Z,98363.00
2018-07-19T14:39:52.253Z,98366.00
2018-07-19T14:42:20.844Z,98368.00
2018-07-19T14:44:49.426Z,98368.00
2018-07-19T14:47:18.004Z,98378.00
2018-07-19T14:49:48.551Z,98376.00
2018-07-19T14:52:17.259Z,98378.00
2018-07-19T14:54:45.674Z,98374.00
2018-07-19T14:57:14.334Z,98375.00
2018-07-19T14:59:42.761Z,98374.00
2018-07-19T15:02:11.899Z,98379.00
2018-07-19T15:04:40.650Z,98379.00
2018-07-19T15:07:09.301Z,98378.00
2018-07-19T15:09:38.026Z,98385.00
2018-07-19T15:12:07.858Z,98381.00
2018-07-19T15:14:36.471Z,98379.00
2018-07-19T15:17:05.911Z,98368.00
2018-07-19T15:19:35.506Z,98385.00
2018-07-19T15:22:04.821Z,98383.00
2018-07-19T15:24:33.460Z,98374.00
2018-07-19T15:27:01.939Z,98367.00
2018-07-19T15:29:30.583Z,98364.00
2018-07-19T15:31:59.176Z,98362.00
2018-07-19T15:34:29.396Z,98362.00
2018-07-19T15:36:58.796Z,98359.00
2018-07-19T15:39:27.538Z,98361.00
2018-07-19T15:41:56.185Z,98357.00
2018-07-19T15:44:24.855Z,98351.00
2018-07-19T15:46:55.051Z,98348.00
2018-07-19T15:49:23.686Z,98343.00
2018-07-19T15:51:53.208Z,98340.00
2018-07-19T15:54:21.813Z,98347.00
2018-07-19T15:56:50.463Z,98342.00
2018-07-19T15:59:18.914Z,98277.00
2018-07-19T16:01:47.486Z,98345.00
2018-07-19T16:04:16.131Z,98341.00
2018-07-19T16:06:44.697Z,98340.00
2018-07-19T16:09:14.253Z,98340.00
2018-07-19T16:11:42.933Z,98340.00
2018-07-19T16:14:11.478Z,98335.00
2018-07-19T16:16:40.110Z,98342.00
2018-07-19T16:19:08.670Z,98340.00
2018-07-19T16:21:37.271Z,98336.00
2018-07-19T16:24:06.138Z,98339.00
2018-07-19T16:26:34.744Z,98342.00
2018-07-19T16:29:03.336Z,98341.00
2018-07-19T16:31:32.138Z,98338.00
2018-07-19T16:34:00.729Z,98339.00
2018-07-19T16:36:29.306Z,98336.00
2018-07-19T16:38:57.911Z,98341.00
2018-07-19T16:41:26.342Z,98325.00
2018-07-19T16:43:55.007Z,98340.00
2018-07-19T16:46:23.619Z,98342.00
2018-07-19T16:48:52.284Z,98341.00
2018-07-19T16:51:20.866Z,98339.00
2018-07-19T16:53:50.201Z,98337.00
2018-07-19T16:56:18.772Z,98342.00
2018-07-19T16:58:47.541Z,98341.00
2018-07-19T17:01:16.491Z,98345.00
2018-07-19T17:03:44.937Z,98348.00
2018-07-19T17:06:14.059Z,98342.00
2018-07-19T17:08:42.703Z,98349.00
2018-07-19T17:11:11.327Z,98351.00
2018-07-19T17:13:40.047Z,98346.00
2018-07-19T17:16:08.724Z,98344.00
2018-07-19T17:18:37.334Z,98348.00
2018-07-19T17:21:06.009Z,98351.00
2018-07-19T17:23:34.657Z,98347.00
2018-07-19T17:26:03.274Z,98347.00
2018-07-19T17:28:31.914Z,98343.00
2018-07-19T17:31:00.617Z,98349.00
2018-07-19T17:33:29.238Z,98350.00
2018-07-19T17:35:57.913Z,98351.00
2018-07-19T17:38:26.668Z,98351.00
2018-07-19T17:40:55.373Z,98352.00
2018-07-19T17:43:24.056Z,98352.00
2018-07-19T17:45:52.749Z,98352.00
2018-07-19T17:48:21.403Z,98355.00
2018-07-19T17:50:50.073Z,98358.00
2018-07-19T17:53:18.751Z,98360.00
2018-07-19T17:55:47.489Z,98360.00
2018-07-19T17:58:16.226Z,98361.00
2018-07-19T18:00:45.528Z,98360.00
2018-07-19T18:03:14.258Z,98361.00
2018-07-19T18:05:42.988Z,98360.00
2018-07-19T18:08:11.725Z,98365.00
2018-07-19T18:10:40.493Z,98368.00
2018-07-19T18:13:09.171Z,98368.00
2018-07-19T18:15:38.018Z,98371.00
2018-07-19T18:18:06.788Z,98372.00
2018-07-19T18:20:35.481Z,98368.00
2018-07-19T18:23:04.354Z,98368.00
2018-07-19T18:25:33.148Z,98366.00
2018-07-19T18:28:01.913Z,98363.00
2018-07-19T18:30:30.492Z,98370.00
2018-07-19T18:32:59.910Z,98365.00
2018-07-19T18:35:28.568Z,98366.00
2018-07-19T18:37:57.879Z,98364.00
2018-07-19T18:40:26.606Z,98372.00
2018-07-19T18:42:55.348Z,98367.00
2018-07-19T18:45:24.203Z,98365.00
2018-07-19T18:47:53.951Z,98369.00
2018-07-19T18:50:22.900Z,98369.00
2018-07-19T18:52:52.064Z,98369.00
2018-07-19T18:55:20.823Z,98374.00
2018-07-19T18:57:49.520Z,98377.00
2018-07-19T19:00:18.081Z,98384.00
2018-07-19T19:02:47.130Z,98385.00
2018-07-19T19:05:16.499Z,98387.00
2018-07-19T19:07:45.116Z,98389.00
2018-07-19T19:10:14.293Z,98388.00
2018-07-19T19:12:43.435Z,98388.00
2018-07-19T19:15:14.520Z,98394.00
2018-07-19T19:17:43.169Z,98393.00
2018-07-19T19:20:11.873Z,98399.00
2018-07-19T19:22:40.758Z,98404.00
2018-07-19T19:25:09.533Z,98406.00
2018-07-19T19:27:38.355Z,98409.00
2018-07-19T19:30:06.916Z,98415.00
2018-07-19T19:32:35.651Z,98418.00
2018-07-19T19:35:05.953Z,98422.00
2018-07-19T19:37:35.383Z,98420.00
2018-07-19T19:40:05.590Z,98429.00
2018-07-19T19:42:34.336Z,98427.00
2018-07-19T19:45:03.451Z,98438.00
2018-07-19T19:47:32.271Z,98439.00
2018-07-19T19:50:01.101Z,98440.00
2018-07-19T19:52:30.004Z,98440.00
2018-07-19T19:54:58.686Z,98445.00
2018-07-19T19:57:27.384Z,98443.00
2018-07-19T19:59:56.054Z,98450.00
2018-07-19T20:02:25.179Z,98446.00
2018-07-19T20:04:53.888Z,98448.00
2018-07-19T20:07:22.683Z,98448.00
2018-07-19T20:09:51.620Z,98450.00
2018-07-19T20:12:20.469Z,98446.00
2018-07-19T20:14:49.448Z,98447.00
2018-07-19T20:17:18.280Z,98449.00
2018-07-19T20:19:47.604Z,98452.00
2018-07-19T20:22:16.731Z,98451.00
2018-07-19T20:24:45.540Z,98457.00
2018-07-19T20:27:14.358Z,98457.00
2018-07-19T20:29:43.189Z,98452.00
2018-07-19T20:32:12.036Z,98456.00
2018-07-19T20:34:40.846Z,98461.00
2018-07-19T20:37:13.721Z,98461.00
2018-07-19T20:39:42.585Z,98463.00
2018-07-19T20:42:11.384Z,98469.00
2018-07-19T20:44:40.353Z,98472.00
2018-07-19T20:47:10.288Z,98469.00
2018-07-19T20:49:39.053Z,98472.00
2018-07-19T20:52:08.592Z,98475.00
2018-07-19T20:54:37.483Z,98471.00
2018-07-19T20:57:06.447Z,98476.00
2018-07-19T20:59:35.366Z,98472.00
2018-07-19T21:02:04.246Z,98479.00
2018-07-19T21:04:33.133Z,98478.00
2018-07-19T21:07:01.959Z,98480.00
2018-07-19T21:09:31.330Z,98483.00
2018-07-19T21:12:00.101Z,98487.00
2018-07-19T21:14:28.809Z,98489.00
2018-07-19T21:16:57.640Z,98487.00
2018-07-19T21:19:26.378Z,98483.00
2018-07-19T21:21:55.199Z,98489.00
2018-07-19T21:24:23.933Z,98491.00
2018-07-19T21:26:52.563Z,98492.00
2018-07-19T21:29:21.403Z,98492.00
2018-07-19T21:31:50.230Z,98497.00
2018-07-19T21:34:19.120Z,98500.00
2018-07-19T21:36:47.661Z,98497.00
2018-07-19T21:39:16.413Z,98498.00
2018-07-19T21:41:44.964Z,98502.00
2018-07-19T21:44:13.699Z,98502.00
2018-07-19T21:46:42.429Z,98509.00
2018-07-19T21:49:11.294Z,98506.00
2018-07-19T21:51:40.092Z,98508.00
2018-07-19T21:54:08.886Z,98513.00
2018-07-19T21:56:37.654Z,98509.00
2018-07-19T21:59:06.376Z,98487.00
2018-07-19T22:01:39.621Z,98512.00
2018-07-19T22:04:08.381Z,98510.00
2018-07-19T22:06:36.842Z,98508.00
2018-07-19T22:09:07.730Z,98512.00
2018-07-19T22:11:36.468Z,98514.00
2018-07-19T22:14:05.799Z,98510.00
2018-07-19T22:16:34.677Z,98516.00
2018-07-19T22:19:03.298Z,98517.00
2018-07-19T22:21:32.518Z,98519.00
2018-07-19T22:24:01.369Z,98516.00
2018-07-19T22:26:30.168Z,98513.00
2018-07-19T22:28:58.883Z,98514.00
2018-07-19T22:31:27.555Z,98516.00
2018-07-19T22:33:56.271Z,98510.00
2018-07-19T22:36:24.961Z,98513.00
2018-07-19T22:38:53.595Z,98512.00
2018-07-19T22:41:23.988Z,98517.00
2018-07-19T22:43:52.722Z,98517.00
2018-07-19T22:46:21.398Z,98521.00
2018-07-19T22:48:50.103Z,98522.00
2018-07-19T22:51:18.812Z,98518.00
2018-07-19T22:53:47.523Z,98523.00
2018-07-19T22:56:16.246Z,98530.00
2018-07-19T22:58:45.448Z,98531.00
2018-07-19T23:01:14.115Z,98532.00
2018-07-19T23:03:42.765Z,98527.00
2018-07-19T23:06:11.221Z,98531.00
2018-07-19T23:08:39.879Z,98537.00
2018-07-19T23:11:08.520Z,98534.00
2018-07-19T23:13:37.080Z,98538.00
2018-07-19T23:16:05.799Z,98537.00
2018-07-19T23:18:34.268Z,98534.00
2018-07-19T23:21:03.016Z,98532.00
2018-07-19T23:23:32.233Z,98539.00
2018-07-19T23:26:00.895Z,98539.00
2018-07-19T23:28:29.640Z,98540.00
2018-07-19T23:30:58.378Z,98538.00
2018-07-19T23:33:27.616Z,98538.00
2018-07-19T23:36:31.511Z,98542.00
2018-07-19T23:39:05.396Z,98550.00
2018-07-19T23:41:39.076Z,98548.00
2018-07-19T23:44:12.298Z,98548.00
2018-07-19T23:46:44.883Z,98547.00
2018-07-19T23:49:13.523Z,98546.00
2018-07-19T23:51:42.266Z,98542.00
2018-07-19T23:54:10.826Z,98543.00
2018-07-19T23:56:39.555Z,98536.00
2018-07-19T23:59:08.174Z,98534.00
